BWA438 TTPP-TGPY
Flight info
| Callsign | BWA438 |
|---|---|
| Flight time | 0h 32m |
| Altitude | 11000 |
| Route | POS A324 GND |
| Aircraft | AT76/M-SDFGIRY/S |
Departure
| Time | 2026-04-27 01:16 |
|---|---|
| Airport | Piarco International Airport (TTPP) |
Arrival
| Time | 2026-04-27 01:48 |
|---|---|
| Airport | Maurice Bishop International Airport (TGPY) |
| Time | Latitude | Longitude | Altitude | Speed | Heading |
|---|---|---|---|---|---|
| 2026-04-27 00:41 | 10.60043 | -61.34107 | 203 ft | 0 kts | 138° |
| 2026-04-27 01:07 | 10.60042 | -61.34106 | 195 ft | 2 kts | 150° |
| 2026-04-27 01:08 | 10.59996 | -61.34152 | 199 ft | 13 kts | 239° |
| 2026-04-27 01:08 | 10.59931 | -61.34178 | 199 ft | 10 kts | 178° |
| 2026-04-27 01:08 | 10.59862 | -61.34178 | 195 ft | 10 kts | 180° |
| 2026-04-27 01:08 | 10.59794 | -61.34178 | 195 ft | 7 kts | 181° |
| 2026-04-27 01:09 | 10.59755 | -61.34179 | 203 ft | 6 kts | 182° |
| 2026-04-27 01:09 | 10.59714 | -61.34198 | 194 ft | 8 kts | 233° |
| 2026-04-27 01:09 | 10.59709 | -61.34265 | 194 ft | 11 kts | 270° |
| 2026-04-27 01:09 | 10.59708 | -61.34349 | 194 ft | 13 kts | 266° |
| 2026-04-27 01:10 | 10.59706 | -61.34433 | 200 ft | 11 kts | 269° |
| 2026-04-27 01:10 | 10.59700 | -61.34488 | 199 ft | 8 kts | 251° |
| 2026-04-27 01:10 | 10.59661 | -61.34525 | 203 ft | 3 kts | 195° |
| 2026-04-27 01:10 | 10.59630 | -61.34528 | 191 ft | 6 kts | 179° |
| 2026-04-27 01:11 | 10.59629 | -61.34528 | 191 ft | 0 kts | 179° |
| 2026-04-27 01:13 | 10.59626 | -61.34528 | 191 ft | 3 kts | 179° |
| 2026-04-27 01:14 | 10.59582 | -61.34527 | 188 ft | 9 kts | 179° |
| 2026-04-27 01:14 | 10.59536 | -61.34517 | 188 ft | 5 kts | 129° |
| 2026-04-27 01:14 | 10.59535 | -61.34484 | 188 ft | 3 kts | 90° |
| 2026-04-27 01:15 | 10.59536 | -61.34390 | 188 ft | 43 kts | 90° |
| 2026-04-27 01:15 | 10.59536 | -61.33864 | 194 ft | 104 kts | 90° |
| 2026-04-27 01:16 | 10.59546 | -61.33001 | 399 ft | 131 kts | 89° |
| 2026-04-27 01:16 | 10.59577 | -61.32087 | 983 ft | 129 kts | 88° |
| 2026-04-27 01:16 | 10.59614 | -61.31108 | 1112 ft | 154 kts | 89° |
| 2026-04-27 01:16 | 10.59626 | -61.29953 | 1254 ft | 174 kts | 90° |
| 2026-04-27 01:17 | 10.59611 | -61.28713 | 1659 ft | 176 kts | 91° |
| 2026-04-27 01:17 | 10.59604 | -61.27470 | 2089 ft | 175 kts | 90° |
| 2026-04-27 01:17 | 10.59608 | -61.26255 | 2572 ft | 171 kts | 90° |
| 2026-04-27 01:17 | 10.59611 | -61.25058 | 3041 ft | 167 kts | 89° |
| 2026-04-27 01:18 | 10.59610 | -61.23877 | 3475 ft | 167 kts | 90° |
| 2026-04-27 01:18 | 10.59613 | -61.22691 | 3836 ft | 168 kts | 89° |
| 2026-04-27 01:18 | 10.59626 | -61.21493 | 4197 ft | 170 kts | 90° |
| 2026-04-27 01:18 | 10.59645 | -61.20286 | 4555 ft | 172 kts | 89° |
| 2026-04-27 01:19 | 10.59666 | -61.19066 | 4913 ft | 173 kts | 90° |
| 2026-04-27 01:19 | 10.59688 | -61.17833 | 5254 ft | 175 kts | 90° |
| 2026-04-27 01:19 | 10.59716 | -61.16592 | 5606 ft | 177 kts | 89° |
| 2026-04-27 01:19 | 10.59749 | -61.15352 | 5934 ft | 179 kts | 89° |
| 2026-04-27 01:20 | 10.60159 | -61.14173 | 6244 ft | 183 kts | 56° |
| 2026-04-27 01:20 | 10.61154 | -61.13354 | 6534 ft | 191 kts | 20° |
| 2026-04-27 01:20 | 10.62443 | -61.13058 | 6780 ft | 190 kts | 24° |
| 2026-04-27 01:20 | 10.63730 | -61.12581 | 6856 ft | 206 kts | 13° |
| 2026-04-27 01:21 | 10.65116 | -61.12879 | 7236 ft | 206 kts | 328° |
| 2026-04-27 01:21 | 10.66279 | -61.13715 | 7405 ft | 210 kts | 327° |
| 2026-04-27 01:21 | 10.67448 | -61.14581 | 7717 ft | 206 kts | 327° |
| 2026-04-27 01:21 | 10.68681 | -61.15332 | 8026 ft | 206 kts | 333° |
| 2026-04-27 01:22 | 10.69947 | -61.16026 | 8291 ft | 207 kts | 334° |
| 2026-04-27 01:22 | 10.71209 | -61.16714 | 8564 ft | 209 kts | 333° |
| 2026-04-27 01:22 | 10.72477 | -61.17443 | 8830 ft | 210 kts | 332° |
| 2026-04-27 01:22 | 10.73735 | -61.18202 | 9118 ft | 211 kts | 330° |
| 2026-04-27 01:23 | 10.74991 | -61.18978 | 9389 ft | 211 kts | 330° |
| 2026-04-27 01:23 | 10.76253 | -61.19752 | 9637 ft | 212 kts | 330° |
| 2026-04-27 01:23 | 10.77520 | -61.20528 | 9884 ft | 213 kts | 330° |
| 2026-04-27 01:23 | 10.78798 | -61.21312 | 10118 ft | 214 kts | 331° |
| 2026-04-27 01:24 | 10.80067 | -61.22089 | 10345 ft | 215 kts | 331° |
| 2026-04-27 01:24 | 10.81357 | -61.22877 | 10568 ft | 217 kts | 331° |
| 2026-04-27 01:24 | 10.82654 | -61.23672 | 10828 ft | 217 kts | 331° |
| 2026-04-27 01:24 | 10.83955 | -61.24472 | 11068 ft | 219 kts | 331° |
| 2026-04-27 01:25 | 10.85263 | -61.25271 | 11313 ft | 220 kts | 331° |
| 2026-04-27 01:25 | 10.86576 | -61.26074 | 11574 ft | 220 kts | 331° |
| 2026-04-27 01:25 | 10.87885 | -61.26881 | 11794 ft | 221 kts | 331° |
| 2026-04-27 01:25 | 10.89224 | -61.27699 | 11913 ft | 228 kts | 331° |
| 2026-04-27 01:26 | 10.90608 | -61.28547 | 11966 ft | 236 kts | 330° |
| 2026-04-27 01:26 | 10.92046 | -61.29428 | 11996 ft | 245 kts | 330° |
| 2026-04-27 01:26 | 10.93522 | -61.30334 | 12007 ft | 251 kts | 330° |
| 2026-04-27 01:26 | 10.95035 | -61.31263 | 12012 ft | 256 kts | 331° |
| 2026-04-27 01:27 | 10.96551 | -61.32198 | 12015 ft | 261 kts | 330° |
| 2026-04-27 01:27 | 10.98077 | -61.33223 | 12016 ft | 264 kts | 327° |
| 2026-04-27 01:27 | 10.99591 | -61.34298 | 12015 ft | 266 kts | 327° |
| 2026-04-27 01:27 | 11.01115 | -61.35381 | 12013 ft | 268 kts | 327° |
| 2026-04-27 01:28 | 11.02650 | -61.36463 | 12017 ft | 269 kts | 327° |
| 2026-04-27 01:28 | 11.04194 | -61.37544 | 12017 ft | 270 kts | 327° |
| 2026-04-27 01:28 | 11.05751 | -61.38620 | 12017 ft | 271 kts | 327° |
| 2026-04-27 01:28 | 11.07314 | -61.39696 | 12015 ft | 271 kts | 327° |
| 2026-04-27 01:29 | 11.08854 | -61.40756 | 12017 ft | 270 kts | 327° |
| 2026-04-27 01:29 | 11.10433 | -61.41844 | 12017 ft | 270 kts | 327° |
| 2026-04-27 01:29 | 11.11967 | -61.42903 | 12017 ft | 270 kts | 327° |
| 2026-04-27 01:29 | 11.13526 | -61.43977 | 12017 ft | 270 kts | 327° |
| 2026-04-27 01:30 | 11.15081 | -61.45048 | 12017 ft | 270 kts | 327° |
| 2026-04-27 01:30 | 11.16637 | -61.46119 | 12016 ft | 270 kts | 327° |
| 2026-04-27 01:30 | 11.17668 | -61.46829 | 12017 ft | 270 kts | 327° |
| 2026-04-27 01:30 | 11.19222 | -61.47900 | 12018 ft | 270 kts | 327° |
| 2026-04-27 01:31 | 11.20783 | -61.48976 | 12015 ft | 270 kts | 327° |
| 2026-04-27 01:31 | 11.22339 | -61.50047 | 12018 ft | 269 kts | 328° |
| 2026-04-27 01:31 | 11.24407 | -61.51444 | 12018 ft | 269 kts | 328° |
| 2026-04-27 01:31 | 11.25968 | -61.52499 | 12018 ft | 269 kts | 328° |
| 2026-04-27 01:32 | 11.27026 | -61.53213 | 12018 ft | 269 kts | 327° |
| 2026-04-27 01:32 | 11.28580 | -61.54278 | 12018 ft | 269 kts | 327° |
| 2026-04-27 01:32 | 11.30116 | -61.55329 | 12018 ft | 269 kts | 327° |
| 2026-04-27 01:32 | 11.31665 | -61.56406 | 12016 ft | 269 kts | 327° |
| 2026-04-27 01:33 | 11.33220 | -61.57479 | 12018 ft | 270 kts | 327° |
| 2026-04-27 01:33 | 11.34776 | -61.58553 | 12018 ft | 270 kts | 327° |
| 2026-04-27 01:33 | 11.36331 | -61.59624 | 12018 ft | 270 kts | 327° |
| 2026-04-27 01:33 | 11.37883 | -61.60693 | 12018 ft | 269 kts | 327° |
| 2026-04-27 01:34 | 11.39434 | -61.61767 | 12018 ft | 269 kts | 327° |
| 2026-04-27 01:34 | 11.40990 | -61.62839 | 12018 ft | 269 kts | 327° |
| 2026-04-27 01:34 | 11.42526 | -61.63899 | 12018 ft | 269 kts | 327° |
| 2026-04-27 01:34 | 11.44081 | -61.64975 | 12017 ft | 269 kts | 327° |
| 2026-04-27 01:35 | 11.45637 | -61.66047 | 12018 ft | 269 kts | 327° |
| 2026-04-27 01:35 | 11.47187 | -61.67117 | 12017 ft | 269 kts | 327° |
| 2026-04-27 01:35 | 11.48734 | -61.68184 | 12018 ft | 269 kts | 327° |
| 2026-04-27 01:35 | 11.50287 | -61.69260 | 12018 ft | 269 kts | 327° |
| 2026-04-27 01:36 | 11.51823 | -61.70320 | 12018 ft | 269 kts | 327° |
| 2026-04-27 01:36 | 11.53373 | -61.71391 | 12018 ft | 269 kts | 327° |
| 2026-04-27 01:36 | 11.54928 | -61.72465 | 12018 ft | 270 kts | 327° |
| 2026-04-27 01:36 | 11.56484 | -61.73542 | 12018 ft | 270 kts | 327° |
| 2026-04-27 01:37 | 11.58045 | -61.74619 | 12018 ft | 270 kts | 327° |
| 2026-04-27 01:37 | 11.59607 | -61.75699 | 12018 ft | 270 kts | 327° |
| 2026-04-27 01:37 | 11.61169 | -61.76779 | 12018 ft | 270 kts | 327° |
| 2026-04-27 01:37 | 11.62726 | -61.77858 | 12016 ft | 270 kts | 327° |
| 2026-04-27 01:38 | 11.64264 | -61.78920 | 12018 ft | 270 kts | 327° |
| 2026-04-27 01:38 | 11.65821 | -61.79999 | 12017 ft | 270 kts | 327° |
| 2026-04-27 01:38 | 11.67393 | -61.81084 | 11801 ft | 277 kts | 327° |
| 2026-04-27 01:38 | 11.69003 | -61.82199 | 11428 ft | 281 kts | 327° |
| 2026-04-27 01:39 | 11.70633 | -61.83328 | 11050 ft | 283 kts | 327° |
| 2026-04-27 01:39 | 11.72255 | -61.84449 | 10668 ft | 280 kts | 327° |
| 2026-04-27 01:39 | 11.73862 | -61.85564 | 10294 ft | 277 kts | 327° |
| 2026-04-27 01:39 | 11.75456 | -61.86666 | 9919 ft | 275 kts | 327° |
| 2026-04-27 01:40 | 11.77038 | -61.87762 | 9543 ft | 273 kts | 327° |
| 2026-04-27 01:40 | 11.78602 | -61.88843 | 9214 ft | 270 kts | 327° |
| 2026-04-27 01:40 | 11.80145 | -61.89915 | 8885 ft | 267 kts | 327° |
| 2026-04-27 01:40 | 11.81654 | -61.90961 | 8557 ft | 265 kts | 327° |
| 2026-04-27 01:41 | 11.83175 | -61.92012 | 8242 ft | 263 kts | 327° |
| 2026-04-27 01:41 | 11.84685 | -61.93058 | 7918 ft | 261 kts | 327° |
| 2026-04-27 01:41 | 11.86187 | -61.94098 | 7613 ft | 259 kts | 327° |
| 2026-04-27 01:41 | 11.87678 | -61.95135 | 7344 ft | 260 kts | 327° |
| 2026-04-27 01:42 | 11.89183 | -61.96178 | 7068 ft | 261 kts | 327° |
| 2026-04-27 01:42 | 11.90761 | -61.97022 | 6790 ft | 254 kts | 348° |
| 2026-04-27 01:42 | 11.92512 | -61.97220 | 6517 ft | 253 kts | 1° |
| 2026-04-27 01:42 | 11.94181 | -61.97187 | 6239 ft | 227 kts | 5° |
| 2026-04-27 01:43 | 11.95697 | -61.97128 | 5907 ft | 212 kts | 5° |
| 2026-04-27 01:43 | 11.97133 | -61.97074 | 5486 ft | 203 kts | 5° |
| 2026-04-27 01:43 | 11.98484 | -61.96979 | 5053 ft | 189 kts | 19° |
| 2026-04-27 01:43 | 11.99465 | -61.96219 | 4593 ft | 174 kts | 62° |
| 2026-04-27 01:44 | 11.99940 | -61.95107 | 4127 ft | 168 kts | 73° |
| 2026-04-27 01:44 | 12.00239 | -61.93975 | 3715 ft | 163 kts | 80° |
| 2026-04-27 01:44 | 12.00414 | -61.92845 | 3280 ft | 160 kts | 85° |
| 2026-04-27 01:44 | 12.00497 | -61.91715 | 2854 ft | 159 kts | 89° |
| 2026-04-27 01:45 | 12.00518 | -61.90587 | 2424 ft | 157 kts | 91° |
| 2026-04-27 01:45 | 12.00509 | -61.89491 | 1994 ft | 151 kts | 92° |
| 2026-04-27 01:45 | 12.00498 | -61.88433 | 1631 ft | 146 kts | 92° |
| 2026-04-27 01:45 | 12.00491 | -61.87451 | 1450 ft | 127 kts | 92° |
| 2026-04-27 01:46 | 12.00491 | -61.86608 | 1287 ft | 113 kts | 94° |
| 2026-04-27 01:46 | 12.00487 | -61.85812 | 1185 ft | 110 kts | 94° |
| 2026-04-27 01:46 | 12.00476 | -61.85029 | 1030 ft | 109 kts | 95° |
| 2026-04-27 01:46 | 12.00455 | -61.84275 | 909 ft | 106 kts | 95° |
| 2026-04-27 01:47 | 12.00439 | -61.83520 | 771 ft | 105 kts | 94° |
| 2026-04-27 01:47 | 12.00433 | -61.82778 | 642 ft | 106 kts | 93° |
| 2026-04-27 01:47 | 12.00434 | -61.82019 | 513 ft | 108 kts | 92° |
| 2026-04-27 01:47 | 12.00422 | -61.81253 | 383 ft | 108 kts | 93° |
| 2026-04-27 01:48 | 12.00415 | -61.80491 | 229 ft | 107 kts | 93° |
| 2026-04-27 01:48 | 12.00414 | -61.79744 | 49 ft | 103 kts | 92° |
| 2026-04-27 01:48 | 12.00411 | -61.79106 | 36 ft | 75 kts | 92° |
| 2026-04-27 01:48 | 12.00407 | -61.78754 | 38 ft | 35 kts | 88° |
| 2026-04-27 01:49 | 12.00411 | -61.78614 | 38 ft | 8 kts | 68° |
| 2026-04-27 01:49 | 12.00461 | -61.78595 | 38 ft | 9 kts | 1° |
| 2026-04-27 01:49 | 12.00524 | -61.78596 | 40 ft | 7 kts | 1° |
| 2026-04-27 01:49 | 12.00571 | -61.78586 | 41 ft | 6 kts | 35° |
| 2026-04-27 01:50 | 12.00588 | -61.78550 | 41 ft | 6 kts | 73° |
| 2026-04-27 01:50 | 12.00616 | -61.78533 | 42 ft | 5 kts | 6° |
| 2026-04-27 01:50 | 12.00642 | -61.78532 | 43 ft | 5 kts | 0° |
| 2026-04-27 01:50 | 12.00657 | -61.78532 | 44 ft | 1 kts | 358° |
| 2026-04-27 01:51 | 12.00660 | -61.78532 | 44 ft | 1 kts | 356° |
| 2026-04-27 01:51 | 12.00661 | -61.78532 | 44 ft | 0 kts | 357° |